Arnside, United Kingdom
Current Conditions -  °F | °C
As of 10:20 AM on Friday 24 Oct 2014 (Local Time) from EGNO Reporting Station
Scattered Clouds Scattered Clouds  
Wind Chill: 55°   Ceiling: Unl
Heat Index: 55°   Visibility: 6mi
Dew Point: 52°   Wind: 3mph
Humidity: 88%   Direction: NA
Pressure: 29.85"   Gusts: NA
Location:  54.2°N, 2.83°W
Report Text: EGNO 240920Z VRB03KT 9999 FEW007 SCT024 13/11 Q1011
Loading
Personal Weather Stations






























Interactive Weather Map
Tropical Storm Tracking
New forecast layout! Learn more

10-Day Weather Forecast

Advertisements
Track Severe Weather on mobile